CheckWX is a tool to help pilots better visualize weather data.  It is not intended as a substitute for an official pre-flight weather briefing.

16:02:55 UTC

KPTK TAF
Oakland County International Airport
Pontiac, Michigan, USA
KPTK 171120Z 1712/1812 22006KT P6SM SCT025 BKN200 FM171600 24011KT P6SM SCT040 BKN250 FM180000 24006KT P6SM BKN060 FM180700 22004KT P6SM OVC040

Aug-17@
12:00 UTC

Aug-17 @ 12:00 UTC

Aug-17@
16:00 UTC

Aug-17 @ 16:00 UTC

KPTK 171120Z 1712/1812 22006KT P6SM SCT025 BKN200

Expired

Wind
  • 220° at 6 KTS
Cloud Levels
  • Scattered at 2,500' AGL
  • Broken at 20,000' AGL

Aug-17@
16:00 UTC

Aug-17 @ 16:00 UTC

Aug-18@
00:00 UTC

Aug-18 @ 00:00 UTC

FM171600 24011KT P6SM SCT040 BKN250

From

From Standard forecast or significant change

Wind
  • 240° at 11 KTS
Cloud Levels
  • Scattered at 4,000' AGL
  • Broken at 25,000' AGL

Aug-18@
00:00 UTC

Aug-18 @ 00:00 UTC

Aug-18@
07:00 UTC

Aug-18 @ 07:00 UTC

FM180000 24006KT P6SM BKN060

From

From Standard forecast or significant change

Wind
  • 240° at 6 KTS
Cloud Levels
  • Broken at 6,000' AGL

Aug-18@
07:00 UTC

Aug-18 @ 07:00 UTC

Aug-18@
12:00 UTC

Aug-18 @ 12:00 UTC

FM180700 22004KT P6SM OVC040

From

From Standard forecast or significant change

Wind
  • 220° at 4 KTS
Cloud Levels
  • Overcast at 4,000' AGL